createdAt,value
2019-01-28T00:01:44.782Z,3.30
2019-01-28T00:04:15.148Z,3.10
2019-01-28T00:06:45.465Z,3.20
2019-01-28T00:09:15.807Z,3.22
2019-01-28T00:11:46.384Z,3.15
2019-01-28T00:14:16.829Z,3.50
2019-01-28T00:16:47.847Z,3.90
2019-01-28T00:19:18.186Z,3.80
2019-01-28T00:21:48.902Z,2.90
2019-01-28T00:24:19.486Z,3.60
2019-01-28T00:26:49.829Z,3.37
2019-01-28T00:29:20.444Z,3.95
2019-01-28T00:31:51.049Z,3.12
2019-01-28T00:34:21.652Z,3.10
2019-01-28T00:36:52.046Z,3.65
2019-01-28T00:39:22.354Z,3.70
2019-01-28T00:41:53.061Z,3.25
2019-01-28T00:44:24.252Z,3.70
2019-01-28T00:46:54.636Z,3.15
2019-01-28T00:49:25.760Z,3.60
2019-01-28T00:51:56.130Z,3.98
2019-01-28T00:54:26.466Z,3.50
2019-01-28T00:56:57.128Z,3.35
2019-01-28T00:59:28.171Z,3.08
2019-01-28T01:01:58.870Z,4.10
2019-01-28T01:04:29.476Z,3.47
2019-01-28T01:06:59.845Z,3.70
2019-01-28T01:09:30.562Z,4.00
2019-01-28T01:12:01.244Z,3.40
2019-01-28T01:14:31.837Z,3.85
2019-01-28T01:17:02.204Z,4.20
2019-01-28T01:19:32.938Z,3.60
2019-01-28T01:22:03.563Z,3.37
2019-01-28T01:24:33.931Z,4.35
2019-01-28T01:27:04.707Z,3.83
2019-01-28T01:29:35.041Z,4.10
2019-01-28T01:32:05.383Z,4.10
2019-01-28T01:34:36.015Z,4.60
2019-01-28T01:37:07.063Z,4.37
2019-01-28T01:39:37.799Z,4.42
2019-01-28T01:42:08.458Z,4.67
2019-01-28T01:44:39.214Z,3.90
2019-01-28T01:47:09.553Z,4.65
2019-01-28T01:49:39.905Z,4.10
2019-01-28T01:52:10.578Z,4.12
2019-01-28T01:54:40.965Z,4.75
2019-01-28T01:57:11.277Z,4.12
2019-01-28T01:59:42.232Z,5.10
2019-01-28T02:02:12.599Z,4.87
2019-01-28T02:04:42.935Z,4.28
2019-01-28T02:07:13.272Z,5.35
2019-01-28T02:09:44.001Z,5.67
2019-01-28T02:12:14.678Z,5.05
2019-01-28T02:14:45.018Z,5.58
2019-01-28T02:17:15.616Z,5.17
2019-01-28T02:19:45.985Z,5.60
2019-01-28T02:22:16.304Z,5.47
2019-01-28T02:24:46.907Z,4.80
2019-01-28T02:27:17.254Z,6.25
2019-01-28T02:29:47.587Z,5.35
2019-01-28T02:32:18.328Z,5.95
2019-01-28T02:34:48.669Z,6.28
2019-01-28T02:37:19.700Z,6.87
2019-01-28T02:39:50.091Z,6.83
2019-01-28T02:42:20.400Z,7.08
2019-01-28T02:44:51.055Z,7.53
2019-01-28T02:47:21.725Z,6.83
2019-01-28T02:49:52.064Z,6.87
2019-01-28T02:52:22.833Z,7.00
2019-01-28T02:54:53.545Z,7.70
2019-01-28T02:57:24.132Z,8.08
2019-01-28T02:59:54.859Z,8.23
2019-01-28T03:02:25.197Z,7.95
2019-01-28T03:04:55.561Z,8.40
2019-01-28T03:07:26.223Z,7.72
2019-01-28T03:09:56.943Z,7.47
2019-01-28T03:12:27.559Z,7.33
2019-01-28T03:14:57.905Z,7.05
2019-01-28T03:17:29.225Z,7.30
2019-01-28T03:19:59.623Z,7.15
2019-01-28T03:22:30.011Z,6.30
2019-01-28T03:25:00.371Z,6.70
2019-01-28T03:27:30.696Z,6.60
2019-01-28T03:30:01.788Z,6.10
2019-01-28T03:32:32.175Z,4.75
2019-01-28T03:35:02.885Z,4.50
2019-01-28T03:37:33.235Z,4.00
2019-01-28T03:40:05.066Z,3.40
2019-01-28T03:42:35.402Z,3.45
2019-01-28T03:45:11.137Z,3.40
2019-01-28T03:47:42.049Z,2.90
2019-01-28T03:50:16.293Z,3.55
2019-01-28T03:52:46.627Z,3.10
2019-01-28T03:55:16.966Z,2.70
2019-01-28T03:57:47.650Z,2.83
2019-01-28T04:00:24.366Z,2.30
2019-01-28T04:02:55.331Z,2.90
2019-01-28T04:05:26.536Z,2.72
2019-01-28T04:07:57.212Z,2.33
2019-01-28T04:10:27.580Z,2.77
2019-01-28T04:12:58.284Z,2.50
2019-01-28T04:15:29.159Z,2.10
2019-01-28T04:17:59.526Z,2.12
2019-01-28T04:20:49.340Z,1.80
2019-01-28T04:23:19.679Z,1.80
2019-01-28T04:25:50.475Z,2.10
2019-01-28T04:28:21.110Z,2.02
2019-01-28T04:30:51.826Z,2.17
2019-01-28T04:33:22.203Z,2.52
2019-01-28T04:35:52.910Z,2.47
2019-01-28T04:38:23.331Z,2.55
2019-01-28T04:40:53.744Z,2.40
2019-01-28T04:43:24.002Z,3.35
2019-01-28T04:45:54.612Z,3.02
2019-01-28T04:48:25.336Z,2.87
2019-01-28T04:50:55.642Z,2.50
2019-01-28T04:53:26.011Z,2.20
2019-01-28T04:55:56.760Z,2.08
2019-01-28T04:58:27.343Z,2.92
2019-01-28T05:00:57.717Z,2.33
2019-01-28T05:03:28.048Z,2.25
2019-01-28T05:05:58.360Z,2.08
2019-01-28T05:08:28.999Z,2.00
2019-01-28T05:10:59.333Z,2.45
2019-01-28T05:13:30.043Z,2.10
2019-01-28T05:16:00.801Z,2.75
2019-01-28T05:18:31.516Z,2.40
2019-01-28T05:21:01.871Z,2.40
2019-01-28T05:23:32.184Z,1.85
2019-01-28T05:26:02.636Z,2.58
2019-01-28T05:28:32.976Z,2.33
2019-01-28T05:31:03.681Z,2.00
2019-01-28T05:33:34.378Z,2.70
2019-01-28T05:36:04.961Z,3.30
2019-01-28T05:38:35.315Z,2.80
2019-01-28T05:41:05.625Z,2.60
2019-01-28T05:43:36.706Z,2.40
2019-01-28T05:46:07.021Z,2.00
2019-01-28T05:48:38.168Z,2.42
2019-01-28T05:51:08.511Z,2.37
2019-01-28T05:53:39.609Z,2.30
2019-01-28T05:56:10.277Z,2.52
2019-01-28T05:58:40.627Z,2.85
2019-01-28T06:01:11.800Z,2.70
2019-01-28T06:03:42.528Z,3.72
2019-01-28T06:06:13.211Z,2.90
2019-01-28T06:08:43.918Z,3.22
2019-01-28T06:11:14.664Z,3.08
2019-01-28T06:13:45.581Z,2.60
2019-01-28T06:16:16.481Z,3.42
2019-01-28T06:18:47.218Z,2.90
2019-01-28T06:21:17.540Z,3.00
2019-01-28T06:23:48.248Z,3.50
2019-01-28T06:26:18.941Z,3.70
2019-01-28T06:28:49.313Z,3.47
2019-01-28T06:31:20.020Z,3.77
2019-01-28T06:33:50.729Z,3.67
2019-01-28T06:36:21.113Z,4.40
2019-01-28T06:38:51.431Z,4.30
2019-01-28T06:41:22.437Z,4.90
2019-01-28T06:43:53.135Z,5.35
2019-01-28T06:46:23.492Z,4.87
2019-01-28T06:48:54.215Z,5.47
2019-01-28T06:51:24.944Z,6.12
2019-01-28T06:53:55.282Z,4.70
2019-01-28T06:56:25.688Z,5.15
2019-01-28T06:58:56.013Z,5.25
2019-01-28T07:01:26.358Z,6.28
2019-01-28T07:03:56.718Z,5.70
2019-01-28T07:06:27.165Z,5.97
2019-01-28T07:08:57.527Z,5.55
2019-01-28T07:11:28.597Z,5.47
2019-01-28T07:13:59.279Z,6.65
2019-01-28T07:16:29.956Z,6.53
2019-01-28T07:19:00.298Z,6.33
2019-01-28T07:21:30.915Z,7.17
2019-01-28T07:24:01.304Z,6.30
2019-01-28T07:26:31.911Z,7.60
2019-01-28T07:29:02.934Z,7.47
2019-01-28T07:31:34.902Z,7.62
2019-01-28T07:34:05.263Z,8.20
2019-01-28T07:36:35.874Z,8.35
2019-01-28T07:39:08.252Z,9.18
2019-01-28T07:41:38.792Z,7.60
2019-01-28T07:44:09.119Z,8.23
2019-01-28T07:46:39.843Z,7.45
2019-01-28T07:49:10.204Z,6.92
2019-01-28T07:51:40.898Z,6.67
2019-01-28T07:54:11.359Z,7.80
2019-01-28T07:56:41.719Z,7.65
2019-01-28T07:59:12.062Z,7.70
2019-01-28T08:01:42.406Z,8.20
2019-01-28T08:04:13.000Z,6.72
2019-01-28T08:06:43.343Z,7.62
2019-01-28T08:09:13.686Z,7.80
2019-01-28T08:11:44.450Z,7.65
2019-01-28T08:14:14.806Z,8.60
2019-01-28T08:16:45.522Z,9.33
2019-01-28T08:19:16.217Z,10.72
2019-01-28T08:21:46.960Z,10.05
2019-01-28T08:24:17.652Z,9.48
2019-01-28T08:26:48.017Z,10.38
2019-01-28T08:29:18.667Z,8.35
2019-01-28T08:31:49.009Z,8.25
2019-01-28T08:34:20.050Z,8.45
2019-01-28T08:36:50.361Z,7.75
2019-01-28T08:39:21.608Z,9.05
2019-01-28T08:41:51.938Z,7.72
2019-01-28T08:44:22.922Z,7.37
2019-01-28T08:46:54.033Z,7.70
2019-01-28T08:49:24.371Z,8.18
2019-01-28T08:51:55.230Z,6.85
2019-01-28T08:54:25.563Z,7.60
2019-01-28T08:56:55.907Z,6.83
2019-01-28T08:59:26.672Z,6.58
2019-01-28T09:01:57.021Z,7.40
2019-01-28T09:04:27.820Z,6.65
2019-01-28T09:06:58.581Z,6.95
2019-01-28T09:09:28.914Z,6.87
2019-01-28T09:11:59.257Z,6.12
2019-01-28T09:14:30.113Z,6.50
2019-01-28T09:17:00.453Z,6.03
2019-01-28T09:19:30.805Z,6.47
2019-01-28T09:22:01.505Z,5.65
2019-01-28T09:24:32.195Z,6.40
2019-01-28T09:27:02.530Z,7.80
2019-01-28T09:29:32.859Z,6.58
2019-01-28T09:32:03.220Z,7.12
2019-01-28T09:34:33.561Z,6.72
2019-01-28T09:37:04.668Z,6.50
2019-01-28T09:39:35.084Z,6.45
2019-01-28T09:42:05.406Z,6.30
2019-01-28T09:44:35.760Z,5.62
2019-01-28T09:47:06.489Z,5.53
2019-01-28T09:49:36.769Z,6.40
2019-01-28T09:52:07.128Z,6.15
2019-01-28T09:54:37.476Z,5.50
2019-01-28T09:57:07.842Z,4.58
2019-01-28T09:59:38.175Z,4.80
2019-01-28T10:02:08.879Z,4.90
2019-01-28T10:04:39.193Z,4.80
2019-01-28T10:07:09.566Z,4.25
2019-01-28T10:09:40.243Z,4.55
2019-01-28T10:12:10.555Z,4.20
2019-01-28T10:14:41.260Z,4.72
2019-01-28T10:17:11.600Z,4.22
2019-01-28T10:19:41.965Z,4.42
2019-01-28T10:22:12.668Z,4.35
2019-01-28T10:24:43.404Z,3.33
2019-01-28T10:27:13.981Z,3.90
2019-01-28T10:29:44.340Z,3.72
2019-01-28T10:32:14.677Z,3.35
2019-01-28T10:34:45.404Z,3.33
2019-01-28T10:37:15.745Z,3.72
2019-01-28T10:39:46.083Z,2.65
2019-01-28T10:42:17.390Z,3.58
2019-01-28T10:44:47.722Z,2.80
2019-01-28T10:47:18.097Z,2.90
2019-01-28T10:49:48.435Z,3.05
2019-01-28T10:52:18.778Z,2.80
2019-01-28T10:54:49.120Z,3.00
2019-01-28T10:57:19.456Z,2.70
2019-01-28T10:59:49.834Z,2.67
2019-01-28T11:02:20.192Z,2.52
2019-01-28T11:04:51.301Z,2.45
2019-01-28T11:07:21.909Z,2.50
2019-01-28T11:09:52.268Z,2.67
2019-01-28T11:12:22.857Z,2.80
2019-01-28T11:14:53.324Z,2.42
2019-01-28T11:17:23.959Z,2.85
2019-01-28T11:19:54.299Z,2.70
2019-01-28T11:22:24.724Z,2.92
2019-01-28T11:24:55.036Z,1.87
2019-01-28T11:27:25.360Z,2.20
2019-01-28T11:29:56.111Z,2.35
2019-01-28T11:32:26.411Z,2.47
2019-01-28T11:34:56.837Z,2.05
2019-01-28T11:37:27.136Z,2.50
2019-01-28T11:39:57.842Z,2.80
2019-01-28T11:42:28.567Z,2.75
2019-01-28T11:44:58.939Z,2.40
2019-01-28T11:47:29.431Z,2.60
2019-01-28T11:49:59.800Z,1.90
2019-01-28T11:52:30.418Z,2.47
2019-01-28T11:55:00.725Z,2.00
2019-01-28T11:57:31.893Z,2.42
2019-01-28T12:00:02.503Z,2.25
2019-01-28T12:02:34.377Z,1.90
2019-01-28T12:05:08.401Z,2.22
2019-01-28T12:07:39.069Z,2.15
2019-01-28T12:10:12.262Z,1.75
2019-01-28T12:12:42.600Z,1.92
2019-01-28T12:15:19.570Z,1.95
2019-01-28T12:17:49.926Z,2.45
2019-01-28T12:20:21.006Z,1.95
2019-01-28T12:22:51.341Z,1.87
2019-01-28T12:25:21.934Z,1.80
2019-01-28T12:27:52.657Z,2.30
2019-01-28T12:30:31.076Z,2.10
2019-01-28T12:33:01.432Z,1.90
2019-01-28T12:35:31.749Z,1.70
2019-01-28T12:38:02.102Z,2.17
2019-01-28T12:40:32.458Z,2.08
2019-01-28T12:43:02.985Z,1.85
2019-01-28T12:45:33.690Z,1.90
2019-01-28T12:48:03.998Z,2.52
2019-01-28T12:50:34.692Z,1.98
2019-01-28T12:53:05.280Z,1.35
2019-01-28T12:55:35.642Z,1.60
2019-01-28T12:58:07.010Z,1.62
2019-01-28T13:00:44.765Z,1.80
2019-01-28T13:03:15.102Z,2.00
2019-01-28T13:05:45.443Z,1.42
2019-01-28T13:08:15.750Z,1.25
2019-01-28T13:10:46.102Z,1.20
2019-01-28T13:13:16.433Z,1.40
2019-01-28T13:15:47.085Z,1.25
2019-01-28T13:18:18.120Z,1.62
2019-01-28T13:20:48.446Z,1.40
2019-01-28T13:23:19.072Z,1.25
2019-01-28T13:25:49.707Z,1.00
2019-01-28T13:28:20.340Z,1.32
2019-01-28T13:30:51.102Z,1.47
2019-01-28T13:33:21.451Z,1.47
2019-01-28T13:35:51.814Z,1.42
2019-01-28T13:38:22.177Z,1.30
2019-01-28T13:40:53.204Z,1.30
2019-01-28T13:43:23.964Z,1.57
2019-01-28T13:45:54.574Z,2.10
2019-01-28T13:48:25.330Z,1.60
2019-01-28T13:50:55.645Z,1.00
2019-01-28T13:53:25.959Z,1.20
2019-01-28T13:55:56.563Z,1.30
2019-01-28T13:58:27.577Z,1.20
2019-01-28T14:00:57.950Z,1.32
2019-01-28T14:03:28.625Z,1.10
2019-01-28T14:05:59.278Z,1.00
2019-01-28T14:08:30.296Z,1.82
2019-01-28T14:11:00.647Z,1.62
2019-01-28T14:13:30.965Z,1.12
2019-01-28T14:16:01.716Z,1.17
2019-01-28T14:18:32.320Z,0.90
2019-01-28T14:21:03.346Z,1.37
2019-01-28T14:23:34.418Z,1.30
2019-01-28T14:26:04.726Z,1.42
2019-01-28T14:28:35.129Z,1.05
2019-01-28T14:31:05.806Z,1.17
2019-01-28T14:33:36.426Z,1.10
2019-01-28T14:36:07.028Z,1.10
2019-01-28T14:38:37.727Z,1.30
2019-01-28T14:41:08.343Z,1.10
2019-01-28T14:43:39.355Z,1.02
2019-01-28T14:46:09.667Z,1.20
2019-01-28T14:48:39.982Z,1.00
2019-01-28T14:51:10.984Z,1.20
2019-01-28T14:53:41.627Z,1.10
2019-01-28T14:56:12.315Z,1.60
2019-01-28T14:58:42.647Z,1.50
2019-01-28T15:01:12.980Z,1.30
2019-01-28T15:03:43.324Z,1.30
2019-01-28T15:06:13.734Z,1.30
2019-01-28T15:08:44.046Z,1.50
2019-01-28T15:11:14.433Z,1.37
2019-01-28T15:13:44.804Z,1.47
2019-01-28T15:16:15.464Z,1.90
2019-01-28T15:18:46.084Z,1.20
2019-01-28T15:21:16.476Z,1.27
2019-01-28T15:23:46.785Z,1.55
2019-01-28T15:26:18.743Z,1.65
2019-01-28T15:28:49.502Z,1.50
2019-01-28T15:31:20.189Z,2.17
2019-01-28T15:33:50.787Z,1.77
2019-01-28T15:36:21.113Z,1.90
2019-01-28T15:38:51.863Z,2.12
2019-01-28T15:41:22.688Z,2.02
2019-01-28T15:43:53.751Z,1.80
2019-01-28T15:46:24.682Z,1.55
2019-01-28T15:48:55.654Z,1.50
2019-01-28T15:51:26.264Z,1.45
2019-01-28T15:53:56.623Z,1.90
2019-01-28T15:56:27.682Z,1.67
2019-01-28T15:58:58.018Z,1.92
2019-01-28T16:01:28.353Z,1.40
2019-01-28T16:03:58.718Z,1.70
2019-01-28T16:06:29.399Z,1.27
2019-01-28T16:08:59.739Z,1.80
2019-01-28T16:11:30.116Z,3.12
2019-01-28T16:14:00.432Z,3.37
2019-01-28T16:16:30.741Z,3.30
2019-01-28T16:19:01.130Z,2.75
2019-01-28T16:21:31.464Z,2.30
2019-01-28T16:24:02.276Z,2.60
2019-01-28T16:26:33.348Z,2.20
2019-01-28T16:29:04.278Z,2.12
2019-01-28T16:31:34.592Z,2.25
2019-01-28T16:34:05.303Z,1.98
2019-01-28T16:36:36.353Z,1.80
2019-01-28T16:39:08.070Z,1.77
2019-01-28T16:41:38.607Z,2.40
2019-01-28T16:44:08.918Z,1.30
2019-01-28T16:46:39.403Z,1.40
2019-01-28T16:49:09.729Z,1.30
2019-01-28T16:51:40.349Z,1.10
2019-01-28T16:54:11.315Z,1.55
2019-01-28T16:56:42.433Z,0.90
2019-01-28T16:59:13.018Z,1.50
2019-01-28T17:01:43.358Z,1.32
2019-01-28T17:04:13.717Z,1.80
2019-01-28T17:06:44.026Z,1.70
2019-01-28T17:09:14.341Z,2.33
2019-01-28T17:11:45.474Z,2.30
2019-01-28T17:14:16.107Z,4.40
2019-01-28T17:16:46.945Z,2.17
2019-01-28T17:19:17.582Z,2.08
2019-01-28T17:21:47.915Z,2.20
2019-01-28T17:24:18.232Z,2.60
2019-01-28T17:26:48.609Z,1.67
2019-01-28T17:29:18.972Z,1.95
2019-01-28T17:31:49.313Z,2.25
2019-01-28T17:34:19.636Z,1.90
2019-01-28T17:36:50.440Z,2.00
2019-01-28T17:39:20.782Z,2.00
2019-01-28T17:41:51.144Z,3.55
2019-01-28T17:44:21.481Z,3.30
2019-01-28T17:46:52.169Z,2.27
2019-01-28T17:49:22.511Z,2.40
2019-01-28T17:51:53.612Z,2.60
2019-01-28T17:54:24.253Z,2.85
2019-01-28T17:56:54.913Z,2.70
2019-01-28T17:59:25.258Z,3.35
2019-01-28T18:01:56.338Z,3.77
2019-01-28T18:04:27.009Z,3.55
2019-01-28T18:06:57.350Z,3.80
2019-01-28T18:09:27.706Z,3.42
2019-01-28T18:11:58.088Z,3.25
2019-01-28T18:14:28.407Z,3.50
2019-01-28T18:16:58.747Z,4.03
2019-01-28T18:19:29.464Z,4.40
2019-01-28T18:22:00.169Z,2.90
2019-01-28T18:24:30.835Z,2.62
2019-01-28T18:27:01.221Z,2.75
2019-01-28T18:29:31.550Z,2.90
2019-01-28T18:32:01.876Z,2.67
2019-01-28T18:34:32.264Z,3.80
2019-01-28T18:37:03.104Z,3.70
2019-01-28T18:39:33.714Z,3.08
2019-01-28T18:42:04.231Z,3.50
2019-01-28T18:44:35.211Z,4.35
2019-01-28T18:47:05.564Z,3.60
2019-01-28T18:49:36.263Z,2.62
2019-01-28T18:52:06.637Z,3.55
2019-01-28T18:54:37.013Z,3.50
2019-01-28T18:57:07.422Z,3.40
2019-01-28T18:59:38.112Z,3.22
2019-01-28T19:02:08.434Z,3.02
2019-01-28T19:04:38.786Z,3.40
2019-01-28T19:07:14.092Z,3.60
2019-01-28T19:09:45.643Z,3.50
2019-01-28T19:12:17.598Z,3.47
2019-01-28T19:14:55.577Z,3.35
2019-01-28T19:17:27.552Z,3.60
2019-01-28T19:20:15.972Z,3.95
2019-01-28T19:22:46.374Z,3.70
2019-01-28T19:25:16.701Z,4.33
2019-01-28T19:27:47.051Z,9.40
2019-01-28T19:30:18.069Z,6.12
2019-01-28T19:32:48.458Z,4.85
2019-01-28T19:35:18.852Z,5.80
2019-01-28T19:37:49.551Z,4.70
2019-01-28T19:40:19.892Z,3.87
2019-01-28T19:42:50.257Z,4.90
2019-01-28T19:45:20.579Z,4.40
2019-01-28T19:47:51.305Z,4.42
2019-01-28T19:50:22.140Z,5.58
2019-01-28T19:53:25.445Z,4.30
2019-01-28T19:56:08.087Z,4.67
2019-01-28T19:58:58.420Z,4.83
2019-01-28T20:01:41.345Z,6.20
2019-01-28T20:04:31.083Z,4.60
2019-01-28T20:07:15.088Z,4.62
2019-01-28T20:10:25.876Z,5.70
2019-01-28T20:13:08.274Z,5.10
2019-01-28T20:15:58.022Z,5.65
2019-01-28T20:18:42.695Z,5.42
2019-01-28T20:21:33.202Z,6.42
2019-01-28T20:24:17.378Z,6.90
2019-01-28T20:27:07.133Z,6.17
2019-01-28T20:30:12.950Z,6.87
2019-01-28T20:33:02.727Z,7.22
2019-01-28T20:35:45.431Z,7.08
2019-01-28T20:38:28.263Z,7.30
2019-01-28T20:41:18.073Z,7.05
2019-01-28T20:44:02.649Z,6.87
2019-01-28T20:46:52.433Z,7.90
2019-01-28T20:49:35.741Z,7.80
2019-01-28T20:52:25.543Z,7.55
2019-01-28T20:55:09.770Z,8.55
2019-01-28T20:57:59.559Z,8.40
2019-01-28T21:00:43.625Z,8.33
2019-01-28T21:03:33.418Z,9.45
2019-01-28T21:06:15.730Z,7.58
2019-01-28T21:09:26.961Z,8.30
2019-01-28T21:12:07.581Z,8.15
2019-01-28T21:14:50.364Z,8.65
2019-01-28T21:17:40.123Z,10.63
2019-01-28T21:20:23.160Z,9.28
2019-01-28T21:23:12.918Z,10.10
2019-01-28T21:25:53.588Z,9.73
2019-01-28T21:28:43.654Z,9.45
2019-01-28T21:31:26.242Z,10.18
2019-01-28T21:34:16.265Z,9.93
2019-01-28T21:37:02.142Z,10.32
2019-01-28T21:39:52.478Z,10.28
2019-01-28T21:42:37.062Z,10.40
2019-01-28T21:45:26.853Z,10.95
2019-01-28T21:48:09.355Z,12.63
2019-01-28T21:50:59.378Z,10.50
2019-01-28T21:54:01.328Z,11.68
2019-01-28T21:56:51.617Z,11.00
2019-01-28T21:59:35.821Z,11.95
2019-01-28T22:02:25.608Z,11.80
2019-01-28T22:05:09.816Z,12.23
2019-01-28T22:07:59.938Z,11.97
2019-01-28T22:10:44.391Z,11.65
2019-01-28T22:13:34.173Z,11.88
2019-01-28T22:16:16.518Z,12.20
2019-01-28T22:22:33.384Z,12.80
2019-01-28T22:25:23.722Z,12.50
2019-01-28T22:28:08.185Z,12.70
2019-01-28T22:30:57.960Z,13.35
2019-01-28T22:33:40.999Z,13.65
2019-01-28T22:36:30.777Z,13.35
2019-01-28T22:39:13.110Z,12.88
2019-01-28T22:42:03.294Z,12.40
2019-01-28T22:44:47.438Z,12.18
2019-01-28T22:47:37.223Z,12.80
2019-01-28T22:50:20.754Z,11.65
2019-01-28T22:53:10.545Z,14.05
2019-01-28T22:55:55.144Z,13.72
2019-01-28T22:58:45.162Z,13.15
2019-01-28T23:01:29.740Z,13.30
2019-01-28T23:04:19.792Z,13.03
2019-01-28T23:07:02.220Z,13.48
2019-01-28T23:09:51.995Z,13.83
2019-01-28T23:12:36.866Z,12.43
2019-01-28T23:15:26.979Z,13.95
2019-01-28T23:18:11.606Z,12.53
2019-01-28T23:21:04.762Z,13.30
2019-01-28T23:23:47.584Z,13.25
2019-01-28T23:26:37.278Z,15.20
2019-01-28T23:29:20.622Z,14.47
2019-01-28T23:32:10.712Z,13.28
2019-01-28T23:34:53.571Z,12.10
2019-01-28T23:37:43.600Z,12.53
2019-01-28T23:40:28.280Z,13.55
2019-01-28T23:43:18.060Z,13.45
2019-01-28T23:46:01.153Z,13.22
2019-01-28T23:48:51.298Z,12.75
2019-01-28T23:51:33.571Z,12.70
2019-01-28T23:54:23.323Z,13.48
2019-01-28T23:57:05.696Z,12.13
2019-01-28T23:59:55.481Z,12.18
